createdAt,value
2023-01-29T00:01:14.103Z,7.47
2023-01-29T00:03:42.944Z,7.53
2023-01-29T00:06:13.264Z,7.33
2023-01-29T00:08:42.037Z,6.47
2023-01-29T00:11:11.298Z,7.13
2023-01-29T00:13:40.110Z,8.20
2023-01-29T00:16:08.882Z,7.67
2023-01-29T00:18:42.039Z,7.93
2023-01-29T00:21:11.855Z,7.93
2023-01-29T00:23:40.859Z,7.70
2023-01-29T00:26:09.964Z,7.87
2023-01-29T00:28:38.816Z,6.93
2023-01-29T00:31:11.495Z,7.37
2023-01-29T00:33:42.111Z,7.50
2023-01-29T00:36:12.887Z,7.90
2023-01-29T00:38:41.881Z,8.07
2023-01-29T00:41:29.655Z,7.13
2023-01-29T00:44:16.105Z,6.90
2023-01-29T00:46:44.928Z,6.97
2023-01-29T00:49:15.231Z,7.60
2023-01-29T00:51:44.176Z,7.10
2023-01-29T00:54:12.679Z,8.10
2023-01-29T00:56:41.576Z,6.47
2023-01-29T00:59:10.021Z,7.10
2023-01-29T01:01:55.631Z,6.70
2023-01-29T01:04:25.757Z,7.00
2023-01-29T01:06:54.305Z,6.53
2023-01-29T01:09:39.795Z,7.33
2023-01-29T01:12:08.730Z,7.53
2023-01-29T01:14:37.635Z,7.17
2023-01-29T01:17:06.329Z,7.33
2023-01-29T01:19:37.675Z,6.77
2023-01-29T01:22:06.433Z,6.03
2023-01-29T01:24:35.545Z,7.37
2023-01-29T01:27:04.244Z,6.63
2023-01-29T01:29:32.793Z,6.70
2023-01-29T01:32:01.680Z,7.37
2023-01-29T01:34:30.645Z,6.43
2023-01-29T01:37:00.910Z,7.47
2023-01-29T01:39:29.522Z,8.10
2023-01-29T01:41:58.441Z,7.60
2023-01-29T01:44:56.429Z,7.43
2023-01-29T01:47:32.303Z,7.00
2023-01-29T01:50:06.794Z,7.13
2023-01-29T01:52:39.841Z,7.83
2023-01-29T01:55:10.800Z,7.63
2023-01-29T01:57:39.639Z,6.50
2023-01-29T02:00:12.897Z,7.93
2023-01-29T02:03:00.952Z,7.17
2023-01-29T02:05:47.412Z,6.27
2023-01-29T02:08:38.567Z,6.00
2023-01-29T02:11:08.836Z,6.27
2023-01-29T02:13:37.936Z,6.77
2023-01-29T02:16:07.320Z,6.80
2023-01-29T02:18:38.341Z,6.47
2023-01-29T02:21:28.156Z,6.93
2023-01-29T02:24:32.839Z,6.23
2023-01-29T02:27:11.063Z,6.07
2023-01-29T02:29:51.906Z,6.77
2023-01-29T02:32:27.559Z,6.97
2023-01-29T02:35:29.273Z,5.90
2023-01-29T02:38:09.714Z,6.37
2023-01-29T02:40:45.220Z,6.80
2023-01-29T02:43:25.360Z,6.47
2023-01-29T02:46:02.528Z,6.03
2023-01-29T02:48:41.016Z,6.40
2023-01-29T02:51:15.891Z,6.07
2023-01-29T02:53:53.551Z,6.10
2023-01-29T02:56:25.863Z,6.50
2023-01-29T02:58:59.065Z,5.30
2023-01-29T03:01:33.685Z,5.87
2023-01-29T03:04:07.632Z,5.73
2023-01-29T03:06:40.250Z,5.77
2023-01-29T03:09:29.646Z,5.60
2023-01-29T03:12:20.057Z,5.30
2023-01-29T03:15:10.135Z,5.23
2023-01-29T03:17:47.736Z,5.10
2023-01-29T03:20:21.668Z,4.77
2023-01-29T03:22:55.573Z,4.90
2023-01-29T03:25:42.876Z,5.20
2023-01-29T03:28:32.467Z,5.13
2023-01-29T03:34:24.345Z,4.77
2023-01-29T03:36:56.514Z,8.27
2023-01-29T03:39:28.864Z,5.10
2023-01-29T03:42:04.236Z,5.37
2023-01-29T03:44:49.183Z,6.10
2023-01-29T03:47:22.531Z,4.90
2023-01-29T03:50:00.747Z,4.87
2023-01-29T03:52:36.984Z,5.07
2023-01-29T03:55:12.252Z,4.53
2023-01-29T03:57:45.825Z,5.40
2023-01-29T04:00:19.611Z,5.40
2023-01-29T04:02:54.294Z,4.73
2023-01-29T04:05:29.567Z,4.63
2023-01-29T04:08:06.598Z,4.57
2023-01-29T04:11:02.013Z,5.30
2023-01-29T04:13:34.089Z,4.67
2023-01-29T04:16:04.198Z,4.93
2023-01-29T04:18:33.838Z,4.57
2023-01-29T04:21:07.761Z,4.57
2023-01-29T04:23:36.674Z,4.20
2023-01-29T04:26:25.284Z,4.47
2023-01-29T04:29:11.082Z,4.73
2023-01-29T04:31:48.494Z,4.77
2023-01-29T04:34:25.805Z,4.33
2023-01-29T04:37:08.089Z,4.90
2023-01-29T04:39:45.781Z,4.57
2023-01-29T04:42:20.994Z,4.33
2023-01-29T04:44:55.937Z,4.90
2023-01-29T04:47:33.883Z,4.40
2023-01-29T04:50:12.502Z,4.53
2023-01-29T04:52:51.652Z,4.13
2023-01-29T04:55:26.976Z,4.70
2023-01-29T04:58:06.037Z,4.10
2023-01-29T05:00:39.595Z,4.80
2023-01-29T05:03:10.069Z,4.23
2023-01-29T05:05:41.425Z,4.67
2023-01-29T05:08:15.938Z,4.70
2023-01-29T05:10:45.122Z,4.90
2023-01-29T05:13:16.155Z,4.53
2023-01-29T05:15:49.130Z,4.40
2023-01-29T05:18:18.118Z,4.77
2023-01-29T05:20:47.420Z,4.60
2023-01-29T05:23:20.237Z,4.60
2023-01-29T05:25:50.277Z,4.20
2023-01-29T05:28:17.723Z,5.00
2023-01-29T05:30:48.159Z,4.50
2023-01-29T05:33:18.866Z,4.73
2023-01-29T05:35:48.558Z,4.90
2023-01-29T05:38:19.286Z,4.97
2023-01-29T05:40:48.387Z,5.23
2023-01-29T05:43:24.164Z,5.07
2023-01-29T05:45:57.434Z,5.67
2023-01-29T05:48:27.754Z,5.27
2023-01-29T05:50:56.358Z,6.80
2023-01-29T05:53:26.786Z,6.07
2023-01-29T05:55:57.293Z,5.13
2023-01-29T05:58:25.802Z,5.67
2023-01-29T06:00:54.638Z,6.13
2023-01-29T06:03:23.438Z,5.77
2023-01-29T06:05:52.423Z,5.53
2023-01-29T06:08:21.199Z,6.00
2023-01-29T06:11:18.739Z,6.33
2023-01-29T06:13:48.146Z,5.97
2023-01-29T06:16:17.080Z,6.10
2023-01-29T06:18:46.131Z,6.23
2023-01-29T06:21:16.251Z,7.70
2023-01-29T06:24:02.897Z,6.67
2023-01-29T06:26:33.266Z,8.53
2023-01-29T06:29:07.599Z,7.23
2023-01-29T06:31:39.246Z,7.80
2023-01-29T06:34:08.795Z,7.80
2023-01-29T06:36:37.497Z,8.10
2023-01-29T06:39:06.263Z,6.90
2023-01-29T06:42:01.872Z,6.87
2023-01-29T06:44:46.757Z,6.47
2023-01-29T06:47:15.681Z,6.80
2023-01-29T06:49:44.886Z,5.97
2023-01-29T06:52:13.577Z,6.23
2023-01-29T06:54:42.349Z,6.87
2023-01-29T06:57:12.700Z,6.83
2023-01-29T06:59:41.421Z,6.90
2023-01-29T07:02:11.407Z,6.40
2023-01-29T07:04:41.789Z,7.53
2023-01-29T07:07:13.492Z,7.83
2023-01-29T07:09:42.797Z,6.50
2023-01-29T07:12:13.422Z,7.47
2023-01-29T07:14:42.378Z,5.90
2023-01-29T07:17:11.125Z,5.67
2023-01-29T07:19:39.685Z,6.30
2023-01-29T07:22:08.384Z,6.20
2023-01-29T07:24:37.015Z,6.33
2023-01-29T07:27:05.918Z,6.60
2023-01-29T07:29:36.112Z,6.33
2023-01-29T07:32:04.818Z,6.93
2023-01-29T07:34:33.961Z,6.30
2023-01-29T07:37:02.733Z,7.30
2023-01-29T07:39:31.768Z,6.77
2023-01-29T07:42:02.660Z,6.37
2023-01-29T07:44:48.380Z,6.10
2023-01-29T07:47:17.382Z,6.43
2023-01-29T07:49:46.218Z,6.83
2023-01-29T07:52:14.866Z,7.00
2023-01-29T07:54:43.620Z,6.50
2023-01-29T07:57:12.381Z,7.17
2023-01-29T07:59:40.942Z,7.00
2023-01-29T08:02:11.913Z,6.77
2023-01-29T08:04:40.647Z,6.97
2023-01-29T08:07:09.709Z,6.50
2023-01-29T08:09:38.588Z,6.40
2023-01-29T08:12:07.438Z,6.97
2023-01-29T08:14:36.541Z,6.90
2023-01-29T08:17:32.253Z,6.77
2023-01-29T08:20:01.184Z,7.43
2023-01-29T08:22:59.918Z,6.83
2023-01-29T08:25:40.933Z,6.87
2023-01-29T08:28:10.397Z,7.17
2023-01-29T08:30:40.314Z,7.00
2023-01-29T08:33:10.577Z,7.27
2023-01-29T08:35:41.392Z,8.03
2023-01-29T08:38:11.688Z,7.43
2023-01-29T08:40:40.709Z,7.73
2023-01-29T08:43:10.222Z,7.90
2023-01-29T08:45:41.439Z,7.17
2023-01-29T08:48:12.465Z,7.60
2023-01-29T08:50:41.427Z,7.80
2023-01-29T08:53:11.064Z,8.20
2023-01-29T08:55:41.165Z,8.17
2023-01-29T08:58:11.519Z,8.40
2023-01-29T09:00:40.871Z,8.33
2023-01-29T09:03:10.790Z,8.13
2023-01-29T09:05:40.857Z,7.80
2023-01-29T09:08:10.841Z,8.33
2023-01-29T09:10:39.710Z,8.97
2023-01-29T09:13:08.331Z,9.47
2023-01-29T09:15:37.141Z,7.77
2023-01-29T09:18:07.016Z,8.10
2023-01-29T09:20:40.460Z,9.03
2023-01-29T09:23:10.576Z,9.20
2023-01-29T09:25:39.508Z,9.43
2023-01-29T09:28:08.256Z,8.90
2023-01-29T09:30:39.228Z,8.47
2023-01-29T09:33:16.148Z,9.07
2023-01-29T09:35:53.197Z,8.70
2023-01-29T09:38:25.408Z,8.23
2023-01-29T09:41:06.176Z,8.73
2023-01-29T09:43:46.440Z,8.20
2023-01-29T09:46:23.845Z,9.30
2023-01-29T09:49:00.226Z,9.40
2023-01-29T09:51:35.863Z,9.60
2023-01-29T09:54:19.271Z,9.97
2023-01-29T09:56:50.416Z,9.03
2023-01-29T09:59:23.052Z,8.43
2023-01-29T10:02:01.635Z,10.50
2023-01-29T10:05:00.122Z,8.80
2023-01-29T10:08:00.109Z,8.97
2023-01-29T10:10:45.590Z,10.53
2023-01-29T10:13:53.692Z,10.37
2023-01-29T10:16:42.089Z,9.97
2023-01-29T10:19:31.644Z,10.03
2023-01-29T10:22:22.037Z,10.33
2023-01-29T10:24:59.717Z,10.33
2023-01-29T10:27:36.599Z,10.53
2023-01-29T10:30:11.059Z,10.77
2023-01-29T10:32:40.617Z,10.17
2023-01-29T10:35:23.435Z,10.97
2023-01-29T10:37:59.482Z,10.30
2023-01-29T10:40:47.908Z,10.17
2023-01-29T10:43:24.707Z,12.77
2023-01-29T10:46:05.838Z,10.53
2023-01-29T10:49:00.484Z,11.57
2023-01-29T10:52:00.802Z,11.17
2023-01-29T10:54:50.899Z,9.67
2023-01-29T10:57:43.588Z,9.50
2023-01-29T11:00:21.311Z,10.50
2023-01-29T11:02:52.322Z,10.50
2023-01-29T11:05:28.756Z,10.87
2023-01-29T11:08:06.706Z,10.90
2023-01-29T11:10:43.227Z,11.23
2023-01-29T11:13:19.197Z,10.47
2023-01-29T11:15:49.259Z,10.00
2023-01-29T11:18:19.650Z,10.87
2023-01-29T11:21:00.519Z,11.17
2023-01-29T11:23:32.220Z,9.93
2023-01-29T11:26:02.172Z,10.40
2023-01-29T11:28:41.289Z,11.33
2023-01-29T11:31:28.744Z,10.97
2023-01-29T11:34:10.966Z,10.83
2023-01-29T11:36:42.571Z,10.87
2023-01-29T11:39:27.725Z,11.40
2023-01-29T11:42:01.041Z,10.93
2023-01-29T11:44:35.680Z,11.33
2023-01-29T11:47:25.753Z,10.73
2023-01-29T11:49:58.122Z,10.30
2023-01-29T11:52:39.793Z,10.80
2023-01-29T11:55:19.155Z,10.80
2023-01-29T11:57:54.776Z,10.53
2023-01-29T12:00:27.645Z,10.97
2023-01-29T12:02:58.372Z,11.03
2023-01-29T12:05:28.176Z,10.00
2023-01-29T12:08:00.172Z,9.90
2023-01-29T12:10:35.896Z,10.87
2023-01-29T12:13:19.269Z,9.80
2023-01-29T12:15:50.941Z,10.87
2023-01-29T12:18:30.664Z,9.77
2023-01-29T12:21:03.193Z,10.90
2023-01-29T12:23:40.469Z,10.67
2023-01-29T12:26:13.878Z,10.07
2023-01-29T12:28:51.700Z,10.40
2023-01-29T12:31:29.122Z,10.40
2023-01-29T12:34:06.642Z,10.33
2023-01-29T12:36:39.865Z,10.40
2023-01-29T12:39:10.489Z,10.33
2023-01-29T12:41:46.045Z,10.80
2023-01-29T12:44:20.752Z,11.57
2023-01-29T12:46:53.880Z,10.37
2023-01-29T12:49:27.481Z,10.63
2023-01-29T12:52:00.570Z,10.60
2023-01-29T12:54:34.632Z,10.40
2023-01-29T12:57:05.948Z,10.37
2023-01-29T12:59:39.781Z,11.57
2023-01-29T13:02:20.704Z,10.37
2023-01-29T13:04:57.470Z,11.00
2023-01-29T13:07:31.364Z,10.13
2023-01-29T13:10:07.149Z,10.33
2023-01-29T13:12:37.937Z,9.70
2023-01-29T13:15:16.748Z,9.97
2023-01-29T13:17:51.169Z,11.33
2023-01-29T13:20:24.404Z,11.30
2023-01-29T13:22:57.198Z,11.07
2023-01-29T13:25:26.005Z,9.60
2023-01-29T13:27:55.275Z,10.60
2023-01-29T13:30:29.449Z,10.73
2023-01-29T13:33:09.909Z,10.63
2023-01-29T13:35:41.756Z,9.67
2023-01-29T13:38:26.403Z,11.53
2023-01-29T13:40:58.501Z,11.70
2023-01-29T13:43:50.156Z,11.47
2023-01-29T13:46:24.529Z,10.57
2023-01-29T13:48:58.508Z,11.03
2023-01-29T13:51:35.135Z,11.97
2023-01-29T13:54:07.788Z,12.13
2023-01-29T13:56:59.396Z,11.60
2023-01-29T13:59:53.354Z,11.90
2023-01-29T14:02:28.868Z,12.07
2023-01-29T14:05:42.432Z,11.50
2023-01-29T14:08:41.603Z,12.60
2023-01-29T14:11:49.579Z,12.37
2023-01-29T14:14:52.108Z,11.30
2023-01-29T14:17:26.101Z,13.03
2023-01-29T14:19:59.605Z,13.10
2023-01-29T14:22:33.792Z,11.67
2023-01-29T14:25:06.561Z,11.60
2023-01-29T14:27:37.299Z,11.93
2023-01-29T14:30:10.114Z,12.40
2023-01-29T14:32:41.997Z,12.43
2023-01-29T14:35:20.788Z,11.77
2023-01-29T14:37:54.025Z,11.93
2023-01-29T14:40:25.413Z,13.67
2023-01-29T14:43:01.624Z,12.97
2023-01-29T14:45:32.238Z,12.57
2023-01-29T14:48:36.587Z,11.57
2023-01-29T14:51:11.832Z,11.00
2023-01-29T14:53:54.671Z,13.73
2023-01-29T14:56:29.616Z,12.43
2023-01-29T14:59:17.330Z,11.03
2023-01-29T15:01:52.576Z,11.70
2023-01-29T15:04:26.101Z,12.60
2023-01-29T15:07:01.496Z,10.97
2023-01-29T15:09:40.956Z,11.70
2023-01-29T15:12:20.085Z,14.90
2023-01-29T15:15:16.889Z,13.27
2023-01-29T15:17:56.327Z,13.30
2023-01-29T15:20:30.270Z,12.23
2023-01-29T15:22:59.467Z,20.97
2023-01-29T15:26:01.453Z,15.27
2023-01-29T15:28:31.782Z,13.87
2023-01-29T15:31:02.508Z,13.53
2023-01-29T15:33:31.997Z,14.53
2023-01-29T15:36:09.409Z,13.43
2023-01-29T15:38:38.207Z,11.93
2023-01-29T15:41:20.315Z,13.00
2023-01-29T15:43:51.179Z,12.27
2023-01-29T15:46:25.987Z,12.10
2023-01-29T15:48:56.666Z,12.27
2023-01-29T15:51:33.894Z,11.50
2023-01-29T15:54:05.190Z,10.90
2023-01-29T15:56:38.746Z,11.70
2023-01-29T15:59:10.169Z,10.50
2023-01-29T16:01:38.485Z,13.13
2023-01-29T16:04:07.831Z,12.97
2023-01-29T16:06:39.851Z,13.67
2023-01-29T16:09:09.670Z,13.43
2023-01-29T16:11:40.433Z,13.30
2023-01-29T16:14:09.847Z,13.33
2023-01-29T16:16:38.541Z,11.23
2023-01-29T16:19:15.499Z,11.37
2023-01-29T16:21:46.473Z,12.53
2023-01-29T16:24:22.709Z,12.43
2023-01-29T16:26:54.798Z,13.00
2023-01-29T16:29:25.171Z,11.93
2023-01-29T16:32:00.827Z,11.23
2023-01-29T16:34:57.900Z,10.27
2023-01-29T16:37:29.815Z,12.83
2023-01-29T16:39:59.021Z,10.37
2023-01-29T16:42:30.654Z,14.83
2023-01-29T16:45:01.507Z,12.70
2023-01-29T16:47:36.084Z,13.10
2023-01-29T16:50:22.357Z,13.93
2023-01-29T16:52:58.152Z,12.33
2023-01-29T16:55:27.727Z,10.67
2023-01-29T16:57:58.064Z,11.10
2023-01-29T17:00:29.195Z,11.87
2023-01-29T17:03:02.563Z,9.87
2023-01-29T17:05:33.504Z,12.03
2023-01-29T17:08:02.213Z,12.60
2023-01-29T17:10:36.065Z,14.27
2023-01-29T17:13:10.100Z,14.83
2023-01-29T17:15:46.246Z,12.63
2023-01-29T17:18:20.575Z,11.83
2023-01-29T17:20:49.528Z,10.57
2023-01-29T17:23:18.042Z,14.43
2023-01-29T17:25:47.328Z,14.93
2023-01-29T17:28:19.104Z,14.77
2023-01-29T17:31:00.362Z,14.03
2023-01-29T17:33:34.176Z,10.30
2023-01-29T17:36:02.925Z,13.33
2023-01-29T17:38:31.542Z,14.33
2023-01-29T17:41:03.680Z,11.70
2023-01-29T17:43:33.731Z,12.70
2023-01-29T17:46:02.549Z,13.53
2023-01-29T17:48:32.377Z,12.03
2023-01-29T17:51:03.542Z,12.07
2023-01-29T17:53:45.539Z,11.97
2023-01-29T17:56:19.529Z,11.83
2023-01-29T17:58:50.046Z,10.63
2023-01-29T18:01:18.565Z,11.30
2023-01-29T18:03:47.158Z,11.93
2023-01-29T18:06:27.534Z,12.50
2023-01-29T18:09:15.530Z,12.90
2023-01-29T18:11:44.402Z,13.67
2023-01-29T18:14:15.384Z,13.00
2023-01-29T18:16:46.322Z,12.87
2023-01-29T18:19:17.914Z,12.30
2023-01-29T18:21:46.635Z,13.63
2023-01-29T18:24:15.163Z,12.53
2023-01-29T18:26:44.030Z,13.13
2023-01-29T18:29:14.416Z,14.77
2023-01-29T18:31:43.145Z,13.73
2023-01-29T18:34:11.791Z,12.33
2023-01-29T18:36:40.755Z,13.40
2023-01-29T18:39:09.173Z,13.37
2023-01-29T18:41:37.779Z,13.10
2023-01-29T18:44:06.436Z,14.73
2023-01-29T18:46:36.649Z,14.63
2023-01-29T18:49:05.317Z,13.90
2023-01-29T18:51:33.816Z,13.60
2023-01-29T18:54:02.395Z,12.33
2023-01-29T18:56:31.280Z,14.97
2023-01-29T18:58:59.943Z,13.23
2023-01-29T19:01:28.740Z,13.50
2023-01-29T19:03:59.988Z,13.47
2023-01-29T19:06:28.856Z,12.47
2023-01-29T19:09:08.866Z,13.80
2023-01-29T19:11:37.949Z,13.37
2023-01-29T19:14:06.683Z,12.97
2023-01-29T19:16:35.108Z,13.97
2023-01-29T19:19:05.240Z,12.57
2023-01-29T19:21:36.111Z,12.03
2023-01-29T19:24:05.190Z,12.77
2023-01-29T19:26:34.248Z,11.47
2023-01-29T19:29:03.165Z,14.03
2023-01-29T19:31:32.271Z,12.97
2023-01-29T19:34:01.110Z,13.13
2023-01-29T19:36:31.374Z,15.53
2023-01-29T19:39:00.804Z,13.63
2023-01-29T19:41:32.691Z,16.43
2023-01-29T19:44:01.561Z,12.63
2023-01-29T19:46:30.634Z,11.97
2023-01-29T19:48:59.202Z,11.53
2023-01-29T19:51:29.336Z,15.50
2023-01-29T19:53:59.704Z,16.67
2023-01-29T19:56:28.656Z,16.67
2023-01-29T19:58:57.654Z,17.03
2023-01-29T20:01:29.510Z,15.57
2023-01-29T20:04:13.442Z,15.73
2023-01-29T20:06:42.056Z,14.13
2023-01-29T20:09:11.916Z,16.37
2023-01-29T20:11:41.023Z,15.30
2023-01-29T20:14:11.188Z,16.43
2023-01-29T20:16:39.989Z,16.03
2023-01-29T20:19:13.172Z,18.10
2023-01-29T20:21:45.834Z,16.87
2023-01-29T20:24:16.288Z,17.80
2023-01-29T20:26:44.781Z,17.30
2023-01-29T20:29:13.755Z,16.57
2023-01-29T20:31:42.559Z,16.03
2023-01-29T20:34:11.437Z,16.60
2023-01-29T20:36:40.230Z,17.30
2023-01-29T20:39:08.865Z,17.33
2023-01-29T20:41:41.765Z,17.17
2023-01-29T20:44:10.311Z,17.57
2023-01-29T20:46:38.954Z,15.20
2023-01-29T20:49:08.481Z,16.60
2023-01-29T20:51:37.021Z,18.97
2023-01-29T20:54:05.939Z,18.90
2023-01-29T20:56:38.228Z,17.33
2023-01-29T20:59:21.890Z,16.47
2023-01-29T21:01:50.814Z,15.20
2023-01-29T21:04:19.568Z,15.50
2023-01-29T21:06:48.093Z,15.10
2023-01-29T21:09:16.979Z,16.07
2023-01-29T21:11:46.615Z,14.57
2023-01-29T21:14:15.871Z,15.37
2023-01-29T21:16:52.740Z,13.53
2023-01-29T21:19:21.605Z,13.93
2023-01-29T21:21:50.603Z,12.77
2023-01-29T21:24:20.039Z,15.67
2023-01-29T21:26:48.985Z,15.07
2023-01-29T21:29:17.767Z,16.00
2023-01-29T21:31:46.732Z,17.50
2023-01-29T21:34:16.904Z,18.03
2023-01-29T21:36:47.019Z,16.00
2023-01-29T21:39:20.707Z,17.67
2023-01-29T21:42:08.284Z,17.03
2023-01-29T21:44:38.203Z,18.03
2023-01-29T21:47:12.612Z,17.63
2023-01-29T21:50:09.585Z,18.67
2023-01-29T21:52:38.363Z,17.97
2023-01-29T21:55:08.153Z,16.83
2023-01-29T21:57:36.941Z,17.40
2023-01-29T22:00:06.396Z,18.87
2023-01-29T22:02:35.340Z,19.00
2023-01-29T22:05:18.203Z,15.10
2023-01-29T22:07:49.481Z,15.50
2023-01-29T22:10:19.601Z,16.33
2023-01-29T22:12:48.765Z,15.27
2023-01-29T22:15:17.635Z,16.30
2023-01-29T22:17:46.265Z,15.53
2023-01-29T22:20:16.316Z,15.30
2023-01-29T22:23:12.819Z,15.47
2023-01-29T22:25:42.650Z,15.47
2023-01-29T22:28:11.247Z,14.80
2023-01-29T22:30:40.146Z,14.07
2023-01-29T22:33:10.797Z,14.40
2023-01-29T22:35:42.659Z,15.30
2023-01-29T22:38:13.017Z,16.70
2023-01-29T22:40:41.580Z,15.07
2023-01-29T22:43:10.078Z,14.87
2023-01-29T22:46:08.521Z,11.47
2023-01-29T22:48:37.153Z,12.43
2023-01-29T22:51:13.017Z,12.50
2023-01-29T22:53:44.699Z,10.47
2023-01-29T22:56:16.700Z,10.43
2023-01-29T22:59:11.516Z,10.03
2023-01-29T23:01:40.075Z,10.60
2023-01-29T23:04:10.588Z,9.83
2023-01-29T23:06:39.652Z,9.73
2023-01-29T23:09:13.673Z,11.60
2023-01-29T23:11:42.257Z,10.97
2023-01-29T23:14:10.835Z,10.10
2023-01-29T23:16:39.611Z,10.80
2023-01-29T23:19:08.329Z,10.43
2023-01-29T23:21:36.995Z,10.33
2023-01-29T23:24:06.641Z,9.57
2023-01-29T23:26:54.198Z,10.17
2023-01-29T23:29:22.883Z,10.00
2023-01-29T23:31:51.868Z,10.23
2023-01-29T23:34:20.583Z,10.83
2023-01-29T23:36:49.517Z,11.17
2023-01-29T23:39:18.435Z,18.53
2023-01-29T23:41:48.565Z,10.63
2023-01-29T23:44:17.192Z,11.07
2023-01-29T23:46:45.879Z,10.03
2023-01-29T23:49:14.445Z,11.37
2023-01-29T23:51:43.220Z,13.43
2023-01-29T23:54:12.156Z,11.47
2023-01-29T23:56:40.804Z,10.23
2023-01-29T23:59:11.131Z,10.67
